Thunder radar more information blitzortung!


Radar de pluja more information rain snow radar


Visita la nostra xarxa de llocs de meteo:

Template documentation
and downloads

And another site



No particular awareness of the weather is required.    There are no Weather-warnings

Pagina Historial Weather Underground text

Diari Resum January 18, 2018 Unitats:  Mètric    Imperial   Tant
« Previous Dia
SegĂźent Dia »
Diari Setmana Mensual Anual Personalitzada
  Maxima: Minima: Media:
Temperatura: -17.8 °C -15.7 °C -13.2 °C
Punt de rosada: -17.8 °C -19.2 °C -17.7 °C
Humitat: Humidity % 50 % 57 %
Wind Speed: 0 km/h 0 km/h 6.6 km/h
RĂ fegues de vent: 0 km/h - -
Vent:- - SSE
Pression baro: 0 hPa 34428.8 hPa -
Precipitacions: 0 mm    
Historical Graphs
 
 
Dades de taula per January 18, 2018
Temps Temperatura Punt de rosada Pression baro Vent Wind Speed RĂ fegues de vent Humitat Rainfall Rate (Hourly)
-17.8 °C -17.8 °C 0 hPa Calm     Humidity % 0 mm
00:00 -14.9 °C -18.8 °C 34703.1 hPa Calm     61 % 0 mm
00:03 -12.7 °C -18 °C 34740.4 hPa WNW 6.3 km/h 6.3 km/h 51 % 0 mm
00:08 -12.7 °C -17.9 °C 34740.4 hPa NNE 3.1 km/h 3.1 km/h 52 % 0 mm
00:10 -14.9 °C -18.7 °C 34669.3 hPa Calm   2.6 km/h 62 % 0 mm
00:13 -12.7 °C -17.9 °C 34740.4 hPa WNW 6 km/h 6 km/h 52 % 0 mm
00:18 -12.7 °C -17.9 °C 34740.4 hPa NNE 12.2 km/h 12.2 km/h 52 % 0 mm
00:20 -15 °C -18.7 °C 34669.3 hPa NNW 2.6 km/h 2.6 km/h 62 % 0 mm
00:23 -12.7 °C -17.9 °C 34740.4 hPa NNE 6 km/h 6 km/h 52 % 0 mm
00:28 -12.8 °C -17.9 °C 34740.4 hPa ENE 6.3 km/h 6.3 km/h 52 % 0 mm
00:29 -12.8 °C -17.9 °C 34740.4 hPa ENE 11.9 km/h 11.9 km/h 52 % 0 mm
00:30 -15 °C -18.7 °C 34669.3 hPa North 2.6 km/h 5.1 km/h 62 % 0 mm
00:34 -12.8 °C -17.9 °C 34740.4 hPa North 6 km/h 6 km/h 52 % 0 mm
00:39 -12.8 °C -17.9 °C 34740.4 hPa North 9 km/h 9 km/h 52 % 0 mm
00:40 -15 °C -18.7 °C 34703.1 hPa NW 2.6 km/h 5.1 km/h 62 % 0 mm
00:44 -12.8 °C -17.9 °C 34740.4 hPa NW 9 km/h 9 km/h 52 % 0 mm
00:49 -12.8 °C -17.9 °C 34740.4 hPa NNW 6.3 km/h 6.3 km/h 52 % 0 mm
00:50 -15 °C -18.7 °C 34703.1 hPa WNW 2.6 km/h 2.6 km/h 62 % 0 mm
00:54 -12.8 °C -18 °C 34740.4 hPa NNE 6 km/h 6 km/h 52 % 0 mm
00:59 -12.8 °C -18 °C 34740.4 hPa West 11.9 km/h 11.9 km/h 52 % 0 mm
01:00 -15.1 °C -18.8 °C 34703.1 hPa Calm   5.1 km/h 62 % 0 mm
01:04 -12.8 °C -17.9 °C 34740.4 hPa Calm     53 % 0 mm
01:09 -12.9 °C -17.9 °C 34740.4 hPa NNE 6 km/h 6 km/h 53 % 0 mm
01:10 -15.2 °C -18.8 °C 34703.1 hPa NW 2.6 km/h 5.1 km/h 63 % 0 mm
01:14 -12.9 °C -17.9 °C 34740.4 hPa NNE 6 km/h 6 km/h 53 % 0 mm
01:19 -12.9 °C -17.9 °C 34740.4 hPa WNW 6 km/h 6 km/h 53 % 0 mm
01:20 -15.2 °C -18.8 °C 34703.1 hPa NNE 2.6 km/h 10.3 km/h 63 % 0 mm
01:24 -13 °C -18 °C 34740.4 hPa West 3.1 km/h   53 % 0 mm
01:29 -13.1 °C -18.1 °C 34740.4 hPa NW 3.1 km/h   53 % 0 mm
01:30 -15.3 °C -18.8 °C 34703.1 hPa NE 5.1 km/h 7.7 km/h 63 % 0 mm
01:34 -13.1 °C -18.1 °C 34740.4 hPa WNW 6 km/h 6 km/h 53 % 0 mm
01:39 -13.1 °C -18.1 °C 34740.4 hPa WNW 6 km/h 6 km/h 53 % 0 mm
01:40 -15.3 °C -18.9 °C 34703.1 hPa NNE 2.6 km/h 10.3 km/h 63 % 0 mm
01:44 -13.1 °C -17.9 °C 34740.4 hPa ENE 6 km/h 6 km/h 54 % 0 mm
01:49 -13.1 °C -17.9 °C 34740.4 hPa Calm     54 % 0 mm
01:50 -15.4 °C -18.9 °C 34740.4 hPa North 2.6 km/h 7.7 km/h 63 % 0 mm
01:54 -13.1 °C -18 °C 34740.4 hPa Calm     54 % 0 mm
01:59 -13.1 °C -18 °C 34740.4 hPa North 5.6 km/h   54 % 0 mm
02:00 -15.4 °C -18.9 °C 34740.4 hPa NE 2.6 km/h 7.7 km/h 64 % 0 mm
02:04 -13.2 °C -18.1 °C 34740.4 hPa NNE 6 km/h 6 km/h 54 % 0 mm
02:09 -13.2 °C -18.1 °C 34740.4 hPa ENE 6 km/h 6 km/h 54 % 0 mm
02:10 -15.6 °C -19 °C 34740.4 hPa Calm   7.7 km/h 64 % 0 mm
02:14 -13.2 °C -18.1 °C 34740.4 hPa Calm     54 % 0 mm
02:19 -13.3 °C -18.2 °C 34740.4 hPa NNW 6.3 km/h 6.3 km/h 54 % 0 mm
02:20 -15.6 °C -19.2 °C 34740.4 hPa NNE 7.7 km/h 7.7 km/h 63 % 0 mm
02:24 -13.3 °C -18.2 °C 34740.4 hPa North 6 km/h 6 km/h 54 % 0 mm
02:29 -13.3 °C -18.2 °C 34740.4 hPa WNW 3.1 km/h   54 % 0 mm
02:30 -15.6 °C -19.1 °C 34740.4 hPa North 2.6 km/h 5.1 km/h 64 % 0 mm
02:34 -13.4 °C -18.2 °C 34740.4 hPa NE 6 km/h 6 km/h 54 % 0 mm
02:39 -13.4 °C -18.3 °C 34740.4 hPa West 3.1 km/h 3.1 km/h 54 % 0 mm
02:40 -15.5 °C -18.9 °C 34740.4 hPa North 5.1 km/h 7.7 km/h 64 % 0 mm
02:44 -13.5 °C -18.2 °C 34740.4 hPa Calm     55 % 0 mm
02:49 -13.6 °C -18.3 °C 34703.1 hPa West 3.1 km/h 3.1 km/h 55 % 0 mm
02:50 -15.4 °C -18.7 °C 34703.1 hPa North 2.6 km/h 5.1 km/h 65 % 0 mm
02:54 -13.7 °C -18.4 °C 34703.1 hPa Calm     55 % 0 mm
02:59 -13.8 °C -18.4 °C 34703.1 hPa Calm     55 % 0 mm
03:00 -15.1 °C -18.4 °C 34703.1 hPa Calm   5.1 km/h 65 % 0 mm
03:04 -13.8 °C -18.4 °C 34740.4 hPa Calm     56 % 0 mm
03:09 -13.9 °C -18.4 °C 34740.4 hPa Calm     56 % 0 mm
03:10 -14.9 °C -18.2 °C 34740.4 hPa North 2.6 km/h 5.1 km/h 65 % 0 mm
03:14 -13.9 °C -18.5 °C 34740.4 hPa Calm     56 % 0 mm
03:19 -13.9 °C -18.4 °C 34740.4 hPa NNW 6 km/h 6 km/h 57 % 0 mm
03:20 -14.6 °C -18.1 °C 34703.1 hPa NE 2.6 km/h 7.7 km/h 64 % 0 mm
03:24 -14 °C -18.4 °C 34740.4 hPa Calm     57 % 0 mm
03:29 -14 °C -18.4 °C 34740.4 hPa West 6 km/h 6 km/h 57 % 0 mm
03:30 -14.6 °C -18.2 °C 34703.1 hPa NE 7.7 km/h 7.7 km/h 63 % 0 mm
03:34 -14 °C -18.4 °C 34703.1 hPa Calm     57 % 0 mm
03:39 -14 °C -18.4 °C 34703.1 hPa Calm     57 % 0 mm
03:40 -14.4 °C -17.9 °C 34774.2 hPa NE 2.6 km/h 5.1 km/h 64 % 0 mm
03:44 -14 °C -18.4 °C 34703.1 hPa NW 6 km/h   57 % 0 mm
03:50 -14.6 °C -18.2 °C 34740.4 hPa NE 7.7 km/h 7.7 km/h 63 % 0 mm
04:00 -14.4 °C -18 °C 34740.4 hPa NE 5.1 km/h 7.7 km/h 63 % 0 mm
04:10 -14.3 °C -18 °C 34740.4 hPa NE 7.7 km/h 7.7 km/h 62 % 0 mm
04:20 -14.1 °C -17.8 °C 34703.1 hPa NE 5.1 km/h 7.7 km/h 62 % 0 mm
10:23 -13.9 °C -17.7 °C 34703.1 hPa NNE 6 km/h 6 km/h 62 % 0 mm
10:28 -14 °C -17.8 °C 34703.1 hPa NNE 15 km/h 15 km/h 62 % 0 mm
10:33 -13.8 °C -17.6 °C 34740.4 hPa NNE 8.5 km/h 8.5 km/h 62 % 0 mm
10:38 -13.7 °C -17.5 °C 34740.4 hPa ENE 6 km/h 6 km/h 62 % 0 mm
10:43 -13.7 °C -17.6 °C 34740.4 hPa NNE 9 km/h 9 km/h 61 % 0 mm
10:48 -13.7 °C -17.6 °C 34740.4 hPa NE 11.9 km/h 11.9 km/h 61 % 0 mm
10:53 -13.8 °C -17.7 °C 34740.4 hPa NE 15 km/h 15 km/h 61 % 0 mm
10:58 -13.5 °C -17.4 °C 34740.4 hPa NE 17.9 km/h 17.9 km/h 61 % 0 mm
11:03 -13.6 °C -17.4 °C 34703.1 hPa ENE 17.9 km/h 17.9 km/h 61 % 0 mm
11:08 -13.6 °C -17.4 °C 34703.1 hPa ENE 17.4 km/h 17.4 km/h 61 % 0 mm
11:13 -13.5 °C -17.4 °C 34703.1 hPa NNW 11.9 km/h 11.9 km/h 61 % 0 mm
11:18 -13.2 °C -17.1 °C 34740.4 hPa WNW 11.9 km/h 11.9 km/h 61 % 0 mm
11:23 -13.1 °C -17.1 °C 34740.4 hPa North 9 km/h 9 km/h 61 % 0 mm
11:28 -13.3 °C -17.3 °C 34740.4 hPa NNE 15 km/h 15 km/h 60 % 0 mm
11:33 -13.3 °C -17.4 °C 34740.4 hPa NNW 15 km/h 15 km/h 60 % 0 mm
11:38 -13.3 °C -17.4 °C 34740.4 hPa NNE 15 km/h 15 km/h 60 % 0 mm
11:43 -13.2 °C -17.3 °C 34740.4 hPa NNE 17.9 km/h 17.9 km/h 60 % 0 mm
11:48 -13.3 °C -17.3 °C 34740.4 hPa NNE 17.9 km/h 17.9 km/h 60 % 0 mm
11:53 -13.3 °C -17.3 °C 34740.4 hPa ENE 20.9 km/h 20.9 km/h 60 % 0 mm
11:58 -13.2 °C -17.2 °C 34740.4 hPa NNE 11.9 km/h 11.9 km/h 60 % 0 mm
12:03 -13.2 °C -17.2 °C 34703.1 hPa NNE 15 km/h 15 km/h 60 % 0 mm
12:08 -13.2 °C -17.2 °C 34703.1 hPa NE 15 km/h 15 km/h 60 % 0 mm
12:13 -13.1 °C -17.2 °C 34703.1 hPa NNE 20.9 km/h 20.9 km/h 60 % 0 mm
12:18 -13.1 °C -17.1 °C 34669.3 hPa NNE 16.1 km/h 16.1 km/h 60 % 0 mm
12:19 -13.1 °C -17.1 °C 34669.3 hPa NNE 16.1 km/h 16.1 km/h 60 % 0 mm
12:24 -13 °C -17.1 °C 34669.3 hPa ENE 20.9 km/h 20.9 km/h 60 % 0 mm
12:29 -12.8 °C -17 °C 34669.3 hPa ENE 17.9 km/h 17.9 km/h 59 % 0 mm
12:34 -12.7 °C -16.9 °C 34669.3 hPa ENE 9 km/h 9.8 km/h 59 % 0 mm
12:39 -12.6 °C -16.8 °C 34669.3 hPa North 15 km/h 15 km/h 59 % 0 mm
12:44 -12.5 °C -16.7 °C 34669.3 hPa East 6 km/h 6.3 km/h 59 % 0 mm
12:49 -12.4 °C -16.6 °C 34635.4 hPa WSW 9 km/h 9 km/h 59 % 0 mm
12:54 -12.4 °C -16.8 °C 34635.4 hPa NNE 17.4 km/h 17.4 km/h 58 % 0 mm
12:59 -12.6 °C -16.9 °C 34635.4 hPa NE 9 km/h 9 km/h 58 % 0 mm
13:04 -12.5 °C -16.9 °C 34635.4 hPa NNE 15 km/h 15 km/h 58 % 0 mm
13:09 -12.3 °C -16.7 °C 34635.4 hPa North 15 km/h 15 km/h 58 % 0 mm
13:14 -12.4 °C -16.9 °C 34635.4 hPa ENE 14 km/h 14 km/h 57 % 0 mm
13:19 -12.3 °C -16.8 °C 34669.3 hPa NNE 11.9 km/h 11.9 km/h 57 % 0 mm
13:24 -12.2 °C -16.7 °C 34669.3 hPa NNW 11.9 km/h 11.9 km/h 57 % 0 mm
13:29 -12.1 °C -16.6 °C 34669.3 hPa NNE 15 km/h 15 km/h 57 % 0 mm
13:34 -12.2 °C -16.8 °C 34635.4 hPa NE 11.9 km/h 11.9 km/h 56 % 0 mm
13:39 -12.2 °C -16.9 °C 34635.4 hPa ENE 15 km/h 15 km/h 56 % 0 mm
13:44 -12.1 °C -16.6 °C 34635.4 hPa NE 9.8 km/h 9.8 km/h 57 % 0 mm
13:49 -12.1 °C -16.8 °C 34635.4 hPa NNE 15 km/h 15 km/h 56 % 0 mm
13:54 -11.9 °C -16.6 °C 34635.4 hPa ENE 16.1 km/h 16.1 km/h 56 % 0 mm
13:59 -11.9 °C -16.6 °C 34635.4 hPa NE 10.3 km/h 10.3 km/h 56 % 0 mm
14:04 -11.9 °C -16.6 °C 34669.3 hPa NNE 11.9 km/h 11.9 km/h 56 % 0 mm
14:09 -11.9 °C -16.8 °C 34669.3 hPa SE 11.9 km/h 11.9 km/h 55 % 0 mm
14:14 -11.8 °C -16.5 °C 34669.3 hPa NE 6 km/h 6 km/h 56 % 0 mm
14:19 -11.8 °C -16.4 °C 34635.4 hPa NW 5.6 km/h 5.6 km/h 56 % 0 mm
14:24 -11.7 °C -16.3 °C 34635.4 hPa NW 6 km/h 6 km/h 56 % 0 mm
14:29 -11.6 °C -16.4 °C 34635.4 hPa ESE 9 km/h 9 km/h 55 % 0 mm
14:34 -11.6 °C -16.4 °C 34635.4 hPa ENE 6 km/h 6 km/h 55 % 0 mm
14:39 -11.6 °C -16.4 °C 34635.4 hPa NE 7.6 km/h 7.6 km/h 55 % 0 mm
14:44 -11.4 °C -16.3 °C 34635.4 hPa NE 6 km/h 6 km/h 55 % 0 mm
14:49 -11.4 °C -16.2 °C 34601.5 hPa ENE 6 km/h 6 km/h 55 % 0 mm
14:54 -11.3 °C -16.2 °C 34601.5 hPa NE 9 km/h 9 km/h 55 % 0 mm
14:59 -11.3 °C -16.3 °C 34601.5 hPa NNE 11.9 km/h 11.9 km/h 54 % 0 mm
15:04 -11.3 °C -16.3 °C 34601.5 hPa ENE 10.3 km/h 10.3 km/h 54 % 0 mm
15:09 -11.3 °C -16.3 °C 34601.5 hPa North 9 km/h 9 km/h 54 % 0 mm
15:14 -11.2 °C -16.2 °C 34601.5 hPa ENE 6 km/h 6 km/h 54 % 0 mm
15:19 -11.1 °C -16.2 °C 34601.5 hPa ESE 9 km/h 9 km/h 54 % 0 mm
15:24 -11.1 °C -16.1 °C 34601.5 hPa ESE 9 km/h 9 km/h 54 % 0 mm
15:29 -11 °C -16 °C 34601.5 hPa ENE 9 km/h 9 km/h 54 % 0 mm
15:34 -11 °C -16 °C 34601.5 hPa NNE 11.9 km/h 11.9 km/h 54 % 0 mm
15:39 -11 °C -16 °C 34601.5 hPa NE 10.3 km/h 10.3 km/h 54 % 0 mm
15:44 -10.9 °C -16.1 °C 34601.5 hPa ENE 11.9 km/h 11.9 km/h 53 % 0 mm
15:49 -10.9 °C -16.1 °C 34601.5 hPa NNW 8 km/h 8 km/h 53 % 0 mm
15:54 -10.7 °C -15.9 °C 34601.5 hPa NW 6 km/h 6 km/h 53 % 0 mm
15:59 -10.7 °C -15.9 °C 34601.5 hPa NE 5.6 km/h 5.6 km/h 53 % 0 mm
16:04 -10.7 °C -15.9 °C 34567.7 hPa ENE 6 km/h 6 km/h 53 % 0 mm
16:09 -10.7 °C -16.1 °C 34567.7 hPa NW 6 km/h   52 % 0 mm
16:14 -10.4 °C -15.7 °C 34567.7 hPa NE 9 km/h 9 km/h 53 % 0 mm
16:19 -10.3 °C -15.7 °C 34601.5 hPa WNW 9 km/h 9 km/h 52 % 0 mm
16:24 -10.2 °C -15.6 °C 34601.5 hPa NW 9 km/h 9 km/h 52 % 0 mm
16:29 -10.1 °C -15.4 °C 34601.5 hPa West 9 km/h 9 km/h 52 % 0 mm
16:34 -10.1 °C -15.7 °C 34601.5 hPa WSW 9 km/h 9 km/h 51 % 0 mm
16:39 -10.1 °C -15.6 °C 34601.5 hPa NW 9 km/h 9 km/h 51 % 0 mm
16:44 -10.1 °C -15.6 °C 34601.5 hPa West 15 km/h 15 km/h 51 % 0 mm
16:49 -10.1 °C -15.7 °C 34601.5 hPa WNW 9 km/h 9 km/h 51 % 0 mm
16:54 -10.3 °C -15.8 °C 34601.5 hPa West 7.6 km/h 7.6 km/h 51 % 0 mm
16:59 -10.3 °C -15.9 °C 34601.5 hPa West 15 km/h 15 km/h 51 % 0 mm
17:04 -10.4 °C -16.1 °C 34601.5 hPa West 6 km/h 6 km/h 50 % 0 mm
17:09 -10.4 °C -16.1 °C 34601.5 hPa WNW 9 km/h 9 km/h 50 % 0 mm
17:14 -10.5 °C -16.2 °C 34601.5 hPa West 9 km/h 9 km/h 50 % 0 mm
17:19 -10.6 °C -16.3 °C 34567.7 hPa West 9 km/h 9 km/h 50 % 0 mm
17:24 -10.8 °C -16.4 °C 34567.7 hPa WNW 6.8 km/h 6.8 km/h 50 % 0 mm
17:29 -10.8 °C -16.5 °C 34567.7 hPa West 9 km/h 9 km/h 50 % 0 mm
17:34 -10.9 °C -16.6 °C 34567.7 hPa West 6 km/h 6 km/h 50 % 0 mm
17:39 -11.1 °C -16.7 °C 34567.7 hPa WSW 8 km/h 8 km/h 50 % 0 mm
17:44 -11.2 °C -16.8 °C 34567.7 hPa NNW 9 km/h 9 km/h 50 % 0 mm
17:49 -11.3 °C -16.9 °C 34567.7 hPa NW 7.6 km/h 8 km/h 50 % 0 mm
17:54 -11.4 °C -17.1 °C 34567.7 hPa NW 12.2 km/h 12.2 km/h 50 % 0 mm
17:59 -11.5 °C -17.1 °C 34567.7 hPa West 15 km/h 15 km/h 50 % 0 mm
18:04 -11.6 °C -17.2 °C 34567.7 hPa NE 15 km/h 15 km/h 50 % 0 mm
18:09 -11.7 °C -17.3 °C 34567.7 hPa WNW 9.8 km/h 9.8 km/h 50 % 0 mm
18:14 -11.8 °C -17.3 °C 34567.7 hPa WSW 9 km/h 9 km/h 50 % 0 mm
18:19 -11.9 °C -17.4 °C 34567.7 hPa West 8 km/h 8 km/h 50 % 0 mm
18:24 -11.9 °C -17.5 °C 34567.7 hPa NW 11.9 km/h 11.9 km/h 50 % 0 mm
18:29 -12 °C -17.6 °C 34567.7 hPa WNW 6 km/h 6.8 km/h 50 % 0 mm
18:34 -12.1 °C -17.6 °C 34567.7 hPa West 7.6 km/h 7.6 km/h 50 % 0 mm
18:39 -12.1 °C -17.5 °C 34567.7 hPa SW 6 km/h   51 % 0 mm
18:44 -12.2 °C -17.6 °C 34567.7 hPa WSW 9 km/h 9 km/h 51 % 0 mm
18:49 -12.2 °C -17.6 °C 34567.7 hPa SW 9 km/h 9 km/h 51 % 0 mm
18:50 -14.7 °C -18.3 °C 34533.8 hPa Calm   2.6 km/h 63 % 0 mm
18:54 -12.3 °C -17.7 °C 34567.7 hPa NW 6 km/h 6 km/h 51 % 0 mm
18:59 -12.3 °C -17.7 °C 34567.7 hPa NNW 6 km/h   51 % 0 mm
19:00 -14.7 °C -18.3 °C 34533.8 hPa Calm   2.6 km/h 63 % 0 mm
19:04 -12.3 °C -17.7 °C 34567.7 hPa WNW 7.6 km/h 7.6 km/h 51 % 0 mm
19:09 -12.4 °C -17.7 °C 34567.7 hPa WSW 9 km/h 9 km/h 51 % 0 mm
19:10 -14.7 °C -18.3 °C 34496.6 hPa Calm   2.6 km/h 63 % 0 mm
19:14 -12.4 °C -17.8 °C 34567.7 hPa NNE 6 km/h 6 km/h 51 % 0 mm
19:19 -12.6 °C -17.9 °C 34567.7 hPa WSW 6.3 km/h 6.3 km/h 51 % 0 mm
19:20 -14.8 °C -18.3 °C 34533.8 hPa NNW 2.6 km/h 5.1 km/h 64 % 0 mm
19:24 -12.6 °C -17.9 °C 34567.7 hPa WNW 6 km/h 6.8 km/h 51 % 0 mm
19:29 -12.7 °C -17.9 °C 34567.7 hPa WSW 6 km/h 6 km/h 52 % 0 mm
19:30 -14.9 °C -18.4 °C 34533.8 hPa Calm   5.1 km/h 64 % 0 mm
19:34 -12.7 °C -17.9 °C 34567.7 hPa ENE 6.3 km/h 6.3 km/h 52 % 0 mm
19:39 -12.7 °C -17.9 °C 34567.7 hPa North 11.9 km/h 11.9 km/h 52 % 0 mm
19:40 -14.9 °C -18.4 °C 34496.6 hPa NE 5.1 km/h 5.1 km/h 64 % 0 mm
19:44 -12.8 °C -17.9 °C 34567.7 hPa WSW 6 km/h 6 km/h 52 % 0 mm
19:49 -12.8 °C -18 °C 34567.7 hPa ENE 3.1 km/h   52 % 0 mm
19:50 -15 °C -18.5 °C 34496.6 hPa Calm   2.6 km/h 64 % 0 mm
19:54 -12.8 °C -18 °C 34567.7 hPa NE 9 km/h 9 km/h 52 % 0 mm
19:59 -12.9 °C -18.1 °C 34567.7 hPa ENE 6 km/h 6 km/h 52 % 0 mm
20:00 -15.2 °C -18.7 °C 34496.6 hPa Calm   2.6 km/h 64 % 0 mm
20:04 -12.9 °C -18.1 °C 34533.8 hPa NNE 11.9 km/h 11.9 km/h 52 % 0 mm
20:09 -12.9 °C -17.9 °C 34533.8 hPa NW 3.1 km/h 3.1 km/h 53 % 0 mm
20:10 -15.2 °C -18.6 °C 34462.7 hPa Calm   2.6 km/h 65 % 0 mm
20:14 -13 °C -18 °C 34533.8 hPa North 3.1 km/h 3.1 km/h 53 % 0 mm
20:19 -13.1 °C -18.1 °C 34533.8 hPa West 3.1 km/h   53 % 0 mm
20:20 -15.2 °C -18.6 °C 34462.7 hPa WNW 2.6 km/h 2.6 km/h 65 % 0 mm
20:24 -13 °C -18 °C 34533.8 hPa West 4.2 km/h 4.2 km/h 53 % 0 mm
20:29 -13 °C -18 °C 34533.8 hPa WNW 3.1 km/h   53 % 0 mm
20:30 -15.4 °C -18.7 °C 34462.7 hPa WSW 2.6 km/h 5.1 km/h 65 % 0 mm
20:34 -13.1 °C -18.1 °C 34533.8 hPa ENE 3.1 km/h 3.1 km/h 53 % 0 mm
20:39 -13.2 °C -18.2 °C 34533.8 hPa ENE 3.1 km/h   53 % 0 mm
20:40 -15.3 °C -18.6 °C 34462.7 hPa Calm   7.7 km/h 66 % 0 mm
20:44 -13.2 °C -18.2 °C 34533.8 hPa Calm     53 % 0 mm
20:49 -13.3 °C -18.3 °C 34533.8 hPa SW 3.7 km/h 3.7 km/h 53 % 0 mm
20:54 -13.4 °C -18.3 °C 34533.8 hPa SW 3.1 km/h 3.1 km/h 54 % 0 mm
20:59 -13.5 °C -18.4 °C 34533.8 hPa Calm     54 % 0 mm
21:00 -15.4 °C -18.7 °C 34462.7 hPa WNW 5.1 km/h 5.1 km/h 65 % 0 mm
21:04 -13.5 °C -18.4 °C 34533.8 hPa SW 6 km/h 6 km/h 54 % 0 mm
21:09 -13.4 °C -18.3 °C 34533.8 hPa SW 6 km/h 6 km/h 54 % 0 mm
21:10 -15.4 °C -18.8 °C 34496.6 hPa West 5.1 km/h 7.7 km/h 65 % 0 mm
21:14 -13.5 °C -18.4 °C 34533.8 hPa WSW 3.1 km/h   54 % 0 mm
21:19 -13.5 °C -18.4 °C 34533.8 hPa WSW 3.1 km/h   54 % 0 mm
21:20 -15.5 °C -18.7 °C 34462.7 hPa Calm   7.7 km/h 66 % 0 mm
21:24 -13.5 °C -18.4 °C 34533.8 hPa ENE 3.7 km/h 3.7 km/h 54 % 0 mm
21:29 -13.5 °C -18.2 °C 34533.8 hPa NW 3.1 km/h   55 % 0 mm
21:30 -15.6 °C -18.8 °C 34462.7 hPa SW 5.1 km/h 5.1 km/h 66 % 0 mm
21:34 -13.5 °C -18.2 °C 34533.8 hPa NNE 6 km/h 6 km/h 55 % 0 mm
21:39 -13.6 °C -18.3 °C 34533.8 hPa WNW 3.1 km/h   55 % 0 mm
21:40 -15.7 °C -18.9 °C 34462.7 hPa SW 5.1 km/h 7.7 km/h 66 % 0 mm
21:44 -13.7 °C -18.2 °C 34533.8 hPa Calm     56 % 0 mm
21:49 -13.7 °C -18.2 °C 34533.8 hPa NNE 6 km/h 6 km/h 56 % 0 mm
21:50 -15.7 °C -18.9 °C 34462.7 hPa WSW 5.1 km/h 7.7 km/h 66 % 0 mm
21:54 -13.8 °C -18.2 °C 34533.8 hPa WNW 4.2 km/h   57 % 0 mm
21:59 -13.8 °C -18.2 °C 34533.8 hPa WNW 3.1 km/h   57 % 0 mm
22:00 -15.6 °C -18.8 °C 34462.7 hPa West 5.1 km/h 10.3 km/h 66 % 0 mm
22:04 -13.8 °C -18.2 °C 34496.6 hPa ENE 6 km/h   57 % 0 mm
22:09 -13.9 °C -18.3 °C 34496.6 hPa WSW 6 km/h 6 km/h 57 % 0 mm
22:10 -15.6 °C -18.6 °C 34462.7 hPa WSW 2.6 km/h 5.1 km/h 68 % 0 mm
22:14 -14.1 °C -18.5 °C 34496.6 hPa SW 6 km/h 6 km/h 57 % 0 mm
22:19 -14.1 °C -18.5 °C 34567.7 hPa WNW 9 km/h 9 km/h 57 % 0 mm
22:20 -15.6 °C -18.7 °C 34462.7 hPa West 2.6 km/h 5.1 km/h 67 % 0 mm
22:24 -14 °C -18.4 °C 34567.7 hPa WSW 9 km/h 9 km/h 57 % 0 mm
22:29 -13.9 °C -18.2 °C 34567.7 hPa WSW 6 km/h 6 km/h 58 % 0 mm
22:34 -14 °C -18.3 °C 34601.5 hPa SW 6 km/h 6 km/h 58 % 0 mm
22:39 -14 °C -18.3 °C 34601.5 hPa SW 3.7 km/h 3.7 km/h 58 % 0 mm
22:40 -15.6 °C -18.4 °C 34428.8 hPa NW 2.6 km/h 5.1 km/h 69 % 0 mm
22:44 -14.1 °C -18.3 °C 34601.5 hPa SW 3.1 km/h 3.7 km/h 58 % 0 mm
22:49 -14.2 °C -18.3 °C 34567.7 hPa WSW 3.1 km/h   59 % 0 mm
22:50 -15.5 °C -18.5 °C 34462.7 hPa Calm   5.1 km/h 68 % 0 mm
22:54 -14.2 °C -18.4 °C 34567.7 hPa SW 3.1 km/h 3.1 km/h 59 % 0 mm
22:59 -14.3 °C -18.4 °C 34567.7 hPa SW 3.1 km/h   59 % 0 mm
23:00 -15.5 °C -18.4 °C 34462.7 hPa Calm   2.6 km/h 69 % 0 mm
23:04 -14.3 °C -18.3 °C 34567.7 hPa East 4.2 km/h 4.2 km/h 60 % 0 mm
23:09 -14.3 °C -18.3 °C 34567.7 hPa NNE 3.7 km/h   60 % 0 mm
23:10 -15.6 °C -18.5 °C 34496.6 hPa North 2.6 km/h 5.1 km/h 69 % 0 mm
23:14 -14.3 °C -18.3 °C 34567.7 hPa SW 6 km/h 6 km/h 60 % 0 mm
23:19 -14.3 °C -18.3 °C 34567.7 hPa WNW 6 km/h 6 km/h 60 % 0 mm
23:20 -15.6 °C -18.5 °C 34462.7 hPa North 2.6 km/h 5.1 km/h 69 % 0 mm
23:24 -14.3 °C -18.2 °C 34567.7 hPa South 3.1 km/h   61 % 0 mm
23:29 -14.3 °C -18.2 °C 34567.7 hPa Calm     61 % 0 mm
23:30 -15.6 °C -18.4 °C 34462.7 hPa Calm     69 % 0 mm
23:34 -14.3 °C -18.2 °C 34533.8 hPa WSW 3.1 km/h 3.1 km/h 61 % 0 mm
23:39 -14.5 °C -18.4 °C 34533.8 hPa WSW 6 km/h 6 km/h 61 % 0 mm
23:40 -15.6 °C -18.5 °C 34496.6 hPa Calm   2.6 km/h 69 % 0 mm
23:44 -14.4 °C -18.2 °C 34533.8 hPa WSW 6 km/h 6 km/h 62 % 0 mm
23:49 -14.6 °C -18.4 °C 34533.8 hPa WSW 3.1 km/h 3.1 km/h 61 % 0 mm
23:50 -15.6 °C -18.4 °C 34462.7 hPa Calm   2.6 km/h 70 % 0 mm
23:54 -14.6 °C -18.3 °C 34533.8 hPa Calm     62 % 0 mm
23:59 -14.6 °C -18.4 °C 34533.8 hPa WSW 4.2 km/h 4.2 km/h 61 % 0 mm
Meteo Sesrovires
Elogis d' Weather Underground - 1.75 mb

Guio original per  Jim McMurry - jmcmurry@mwt.net Adaptat per a la plantilla per  Wim van der Kuil - Leuven-Template.eu

Trobareu la nostra informacio del temps tambe a:

Weather Underground

AWEKAS